Bera, Spain
Current Conditions -  °F | °C
As of 5:30 PM on Saturday 25 Oct 2014 (Local Time) from LESO Reporting Station
Clear Clear  
Wind Chill: 68°   Ceiling: Unl
Heat Index: 68°   Visibility: 6mi
Dew Point: 63°   Wind: 5mph
Humidity: 83%   Direction: 20°NNE
Pressure: 30.15"   Gusts: NA
Location:  43.28°N, 1.69°W
Report Text: LESO 251530Z 02004KT CAVOK 20/17 Q1021
Loading
Personal Weather Stations






























Interactive Weather Map
Tropical Storm Tracking
New forecast layout! Learn more

10-Day Weather Forecast

Advertisements
Track Severe Weather on mobile